aviador You're here:

KLWM Decoded Metar

LAWRENCE in MA, USA
Report Time2018-06-20 16:54:00
UTC Time2018-06-20 17:23:09
Flight Rules vfr VFR
Wind200° at 13 kt
W.Decomp.*RWY 23: 12.6 kt HW 3.4 kt LCW
RWY 14: 3.4 kt HW 12.6 kt RCW
W.Rank200° ranks 2
Current wind is above 200° avg. (5.7)
Visibility9999 m
Phenomena:N/A
Clouds:N/A
Expected CloudBase > 6,400 ft AGL from Temp-Dew spread
CeilingNone
Temp27°C (ISA +12)
Dew Point11°C (37% RH)
Heat Index26.7°C
AAT22.7°C
QNH1010 hPa
Density Alt1,880 ft
Elevation177 ft
Report Wrong Elevation
Raw Report
KLWM 201654Z 20013KT 10SM CLR 27/11 A2984 RMK AO2 SLP103
T02720111=

Extra information for KLWM:More info

Metar Taf Metar & Taf Last 4 Metars F.Rules Stats Wind Profile Meteogram Temp Stats Airport Information Weather charts Add Link Nearby VenuesMetar ALERT Operation Metar Decoded Social comments

AIRNAV info for KLWM